createdAt,value
2019-03-29T00:01:21.926Z,99.90
2019-03-29T00:03:48.532Z,99.90
2019-03-29T00:06:15.304Z,99.90
2019-03-29T00:08:42.284Z,99.90
2019-03-29T00:11:09.134Z,99.90
2019-03-29T00:13:35.868Z,99.90
2019-03-29T00:16:02.653Z,99.90
2019-03-29T00:18:29.494Z,99.90
2019-03-29T00:20:56.331Z,99.90
2019-03-29T00:23:23.289Z,99.90
2019-03-29T00:25:51.948Z,99.90
2019-03-29T00:28:18.698Z,99.90
2019-03-29T00:30:45.958Z,99.90
2019-03-29T00:33:14.593Z,99.90
2019-03-29T00:35:41.538Z,99.90
2019-03-29T00:38:08.293Z,99.90
2019-03-29T00:40:34.912Z,99.90
2019-03-29T00:43:01.568Z,99.90
2019-03-29T00:45:30.168Z,99.90
2019-03-29T00:47:56.855Z,99.90
2019-03-29T00:50:23.580Z,99.90
2019-03-29T00:52:50.172Z,99.90
2019-03-29T00:55:16.861Z,99.90
2019-03-29T00:57:43.538Z,99.90
2019-03-29T01:00:10.822Z,99.90
2019-03-29T01:02:37.462Z,99.90
2019-03-29T01:05:06.071Z,99.90
2019-03-29T01:07:32.951Z,99.90
2019-03-29T01:09:59.720Z,99.90
2019-03-29T01:12:26.451Z,99.90
2019-03-29T01:14:53.095Z,99.90
2019-03-29T01:17:21.501Z,99.90
2019-03-29T01:19:48.122Z,99.90
2019-03-29T01:22:14.942Z,99.90
2019-03-29T01:24:43.601Z,99.90
2019-03-29T01:27:10.364Z,99.90
2019-03-29T01:29:37.032Z,99.90
2019-03-29T01:32:03.722Z,99.90
2019-03-29T01:34:30.325Z,99.90
2019-03-29T01:36:57.591Z,99.90
2019-03-29T01:39:24.209Z,99.90
2019-03-29T01:41:50.986Z,99.90
2019-03-29T01:44:17.616Z,99.90
2019-03-29T01:46:44.200Z,99.90
2019-03-29T01:49:10.998Z,99.90
2019-03-29T01:51:37.761Z,99.90
2019-03-29T01:54:04.483Z,99.90
2019-03-29T01:56:31.008Z,99.90
2019-03-29T01:58:58.069Z,99.90
2019-03-29T02:01:24.700Z,99.90
2019-03-29T02:03:51.415Z,99.90
2019-03-29T02:06:19.175Z,99.90
2019-03-29T02:08:46.401Z,99.90
2019-03-29T02:11:13.215Z,99.90
2019-03-29T02:13:40.038Z,99.90
2019-03-29T02:16:06.799Z,99.90
2019-03-29T02:18:33.461Z,99.90
2019-03-29T02:21:02.131Z,99.90
2019-03-29T02:23:28.867Z,99.90
2019-03-29T02:25:55.537Z,99.90
2019-03-29T02:28:22.185Z,99.90
2019-03-29T02:30:48.842Z,99.90
2019-03-29T02:33:16.378Z,99.90
2019-03-29T02:35:43.010Z,99.90
2019-03-29T02:38:09.684Z,99.90
2019-03-29T02:40:36.666Z,99.90
2019-03-29T02:43:03.476Z,99.90
2019-03-29T02:45:30.684Z,99.90
2019-03-29T02:47:57.977Z,99.90
2019-03-29T02:50:24.605Z,99.90
2019-03-29T02:52:51.346Z,99.90
2019-03-29T02:55:18.371Z,99.90
2019-03-29T02:57:45.236Z,99.90
2019-03-29T03:00:12.902Z,99.90
2019-03-29T03:02:39.707Z,99.90
2019-03-29T03:05:08.323Z,99.90
2019-03-29T03:07:36.621Z,99.90
2019-03-29T03:10:06.942Z,99.90
2019-03-29T03:12:33.802Z,99.90
2019-03-29T03:15:00.511Z,99.90
2019-03-29T03:17:27.141Z,99.90
2019-03-29T03:19:53.786Z,99.90
2019-03-29T03:22:20.398Z,99.90
2019-03-29T03:24:47.257Z,99.90
2019-03-29T03:27:14.021Z,99.90
2019-03-29T03:29:40.625Z,99.90
2019-03-29T03:32:07.417Z,99.90
2019-03-29T03:34:34.007Z,99.90
2019-03-29T03:37:01.051Z,99.90
2019-03-29T03:39:32.306Z,99.90
2019-03-29T03:41:56.280Z,99.90
2019-03-29T03:44:23.014Z,99.90
2019-03-29T03:46:49.865Z,99.90
2019-03-29T03:49:16.700Z,99.90
2019-03-29T03:51:43.587Z,99.90
2019-03-29T03:54:12.298Z,99.90
2019-03-29T03:56:39.084Z,99.90
2019-03-29T03:59:06.123Z,99.90
2019-03-29T04:01:32.883Z,99.90
2019-03-29T04:03:59.507Z,99.90
2019-03-29T04:06:26.108Z,99.90
2019-03-29T04:08:52.727Z,99.90
2019-03-29T04:11:19.477Z,99.90
2019-03-29T04:13:46.066Z,99.90
2019-03-29T04:16:12.936Z,99.90
2019-03-29T04:18:39.627Z,99.90
2019-03-29T04:21:06.355Z,99.90
2019-03-29T04:23:33.216Z,99.90
2019-03-29T04:26:00.042Z,99.90
2019-03-29T04:28:27.768Z,99.90
2019-03-29T04:30:54.550Z,99.90
2019-03-29T04:33:21.187Z,99.90
2019-03-29T04:35:47.836Z,99.90
2019-03-29T04:38:14.574Z,99.90
2019-03-29T04:40:41.404Z,99.90
2019-03-29T04:43:08.043Z,99.90
2019-03-29T04:45:34.782Z,99.90
2019-03-29T04:48:01.716Z,99.90
2019-03-29T04:50:28.589Z,99.90
2019-03-29T04:52:55.201Z,99.90
2019-03-29T04:55:21.930Z,99.90
2019-03-29T04:57:48.647Z,99.90
2019-03-29T05:00:15.755Z,99.90
2019-03-29T05:02:42.525Z,99.90
2019-03-29T05:05:09.340Z,99.90
2019-03-29T05:07:37.353Z,99.90
2019-03-29T05:10:19.920Z,99.90
2019-03-29T05:12:34.655Z,99.90
2019-03-29T05:15:01.522Z,99.90
2019-03-29T05:17:28.211Z,99.90
2019-03-29T05:19:54.822Z,99.90
2019-03-29T05:22:21.539Z,99.90
2019-03-29T05:24:48.493Z,99.90
2019-03-29T05:27:15.053Z,99.90
2019-03-29T05:29:41.674Z,99.90
2019-03-29T05:32:08.320Z,99.90
2019-03-29T05:34:35.019Z,99.90
2019-03-29T05:37:03.658Z,99.90
2019-03-29T05:39:30.405Z,99.90
2019-03-29T05:41:57.042Z,99.90
2019-03-29T05:44:23.654Z,99.90
2019-03-29T05:46:51.220Z,99.90
2019-03-29T05:49:17.936Z,99.90
2019-03-29T05:51:44.657Z,99.90
2019-03-29T05:54:11.527Z,99.90
2019-03-29T05:56:38.460Z,99.90
2019-03-29T05:59:05.182Z,99.90
2019-03-29T06:01:31.898Z,99.90
2019-03-29T06:03:58.948Z,99.90
2019-03-29T06:06:25.798Z,99.90
2019-03-29T06:08:53.879Z,99.90
2019-03-29T06:11:20.646Z,99.90
2019-03-29T06:13:47.372Z,99.90
2019-03-29T06:16:14.065Z,99.90
2019-03-29T06:18:40.783Z,99.90
2019-03-29T06:21:07.448Z,99.90
2019-03-29T06:23:34.163Z,99.90
2019-03-29T06:26:00.910Z,99.90
2019-03-29T06:28:29.964Z,99.90
2019-03-29T06:30:56.042Z,99.90
2019-03-29T06:33:22.970Z,99.90
2019-03-29T06:35:52.348Z,99.90
2019-03-29T06:38:22.461Z,99.90
2019-03-29T06:41:01.713Z,99.90
2019-03-29T06:43:17.811Z,99.90
2019-03-29T06:45:48.191Z,99.90
2019-03-29T06:48:13.486Z,99.90
2019-03-29T06:50:40.167Z,99.90
2019-03-29T06:53:08.005Z,99.90
2019-03-29T06:55:34.692Z,99.90
2019-03-29T06:58:01.438Z,99.90
2019-03-29T07:00:28.313Z,99.90
2019-03-29T07:02:55.036Z,99.90
2019-03-29T07:05:21.640Z,99.90
2019-03-29T07:07:48.419Z,99.90
2019-03-29T07:10:29.183Z,99.90
2019-03-29T07:12:56.618Z,99.90
2019-03-29T07:15:23.536Z,99.90
2019-03-29T07:17:50.187Z,99.90
2019-03-29T07:20:16.933Z,99.90
2019-03-29T07:22:45.585Z,99.90
2019-03-29T07:25:12.996Z,99.90
2019-03-29T07:27:53.552Z,99.90
2019-03-29T07:30:21.740Z,99.90
2019-03-29T07:32:48.587Z,99.90
2019-03-29T07:35:15.462Z,99.90
2019-03-29T07:37:45.898Z,99.90
2019-03-29T07:40:15.165Z,99.90
2019-03-29T07:42:41.832Z,99.90
2019-03-29T07:45:11.790Z,99.90
2019-03-29T07:47:38.577Z,99.90
2019-03-29T07:50:06.003Z,99.90
2019-03-29T07:52:32.770Z,99.90
2019-03-29T07:55:00.738Z,99.90
2019-03-29T07:57:27.518Z,99.90
2019-03-29T07:59:54.348Z,99.90
2019-03-29T08:02:21.608Z,99.90
2019-03-29T08:04:48.401Z,99.90
2019-03-29T08:07:26.596Z,99.90
2019-03-29T08:09:44.200Z,99.90
2019-03-29T08:12:10.870Z,99.90
2019-03-29T08:14:37.523Z,99.90
2019-03-29T08:17:04.264Z,99.90
2019-03-29T08:19:31.492Z,99.90
2019-03-29T08:21:58.570Z,99.90
2019-03-29T08:24:25.280Z,99.90
2019-03-29T08:26:52.062Z,99.90
2019-03-29T08:29:18.823Z,99.90
2019-03-29T08:31:45.528Z,99.90
2019-03-29T08:34:12.624Z,99.40
2019-03-29T08:36:39.436Z,98.20
2019-03-29T08:39:06.253Z,97.20
2019-03-29T08:41:33.080Z,95.90
2019-03-29T08:44:00.662Z,94.90
2019-03-29T08:46:27.588Z,93.80
2019-03-29T08:48:54.263Z,93.60
2019-03-29T08:51:21.218Z,93.00
2019-03-29T08:53:49.032Z,92.10
2019-03-29T08:56:16.033Z,91.30
2019-03-29T08:58:46.234Z,90.90
2019-03-29T09:01:19.032Z,90.60
2019-03-29T09:03:45.212Z,90.40
2019-03-29T09:06:12.144Z,89.40
2019-03-29T09:08:39.526Z,88.20
2019-03-29T09:11:07.777Z,86.60
2019-03-29T09:13:34.677Z,86.30
2019-03-29T09:16:02.010Z,85.60
2019-03-29T09:18:28.931Z,85.20
2019-03-29T09:20:55.871Z,84.90
2019-03-29T09:23:22.826Z,85.10
2019-03-29T09:25:49.858Z,86.00
2019-03-29T09:28:16.705Z,87.30
2019-03-29T09:30:43.698Z,89.00
2019-03-29T09:33:11.275Z,90.20
2019-03-29T09:35:38.428Z,91.00
2019-03-29T09:38:05.266Z,91.40
2019-03-29T09:40:35.317Z,92.20
2019-03-29T09:43:09.321Z,92.60
2019-03-29T09:45:32.931Z,93.10
2019-03-29T09:47:59.825Z,93.80
2019-03-29T09:50:26.711Z,94.60
2019-03-29T09:52:53.654Z,95.10
2019-03-29T09:55:20.468Z,95.50
2019-03-29T09:57:47.841Z,95.60
2019-03-29T10:00:20.881Z,95.90
2019-03-29T10:02:43.798Z,96.00
2019-03-29T10:05:10.806Z,96.30
2019-03-29T10:07:37.491Z,96.50
2019-03-29T10:10:05.049Z,96.50
2019-03-29T10:12:42.644Z,96.60
2019-03-29T10:15:00.379Z,96.20
2019-03-29T10:17:27.056Z,96.50
2019-03-29T10:19:53.951Z,96.40
2019-03-29T10:22:20.728Z,96.10
2019-03-29T10:24:47.453Z,96.10
2019-03-29T10:27:14.093Z,96.40
2019-03-29T10:29:41.088Z,96.50
2019-03-29T10:32:09.736Z,96.40
2019-03-29T10:34:37.680Z,96.20
2019-03-29T10:37:04.690Z,96.30
2019-03-29T10:39:35.425Z,96.70
2019-03-29T10:42:01.050Z,96.10
2019-03-29T10:44:27.690Z,95.80
2019-03-29T10:46:54.452Z,96.10
2019-03-29T10:49:21.339Z,95.50
2019-03-29T10:51:48.122Z,95.30
2019-03-29T10:54:14.873Z,94.20
2019-03-29T10:56:41.613Z,92.80
2019-03-29T10:59:08.334Z,91.50
2019-03-29T11:01:34.961Z,89.60
2019-03-29T11:04:02.784Z,86.50
2019-03-29T11:06:29.574Z,83.80
2019-03-29T11:08:57.676Z,81.70
2019-03-29T11:11:24.682Z,80.70
2019-03-29T11:13:51.437Z,78.60
2019-03-29T11:16:18.218Z,76.60
2019-03-29T11:18:45.918Z,75.80
2019-03-29T11:21:12.853Z,74.00
2019-03-29T11:23:39.825Z,72.00
2019-03-29T11:26:06.679Z,70.60
2019-03-29T11:28:34.570Z,71.00
2019-03-29T11:31:01.233Z,69.20
2019-03-29T11:33:31.109Z,67.70
2019-03-29T11:35:57.881Z,66.40
2019-03-29T11:38:24.718Z,66.50
2019-03-29T11:40:51.466Z,66.40
2019-03-29T11:43:26.627Z,64.00
2019-03-29T11:45:46.693Z,62.80
2019-03-29T11:48:13.759Z,62.30
2019-03-29T11:50:40.565Z,62.70
2019-03-29T11:53:07.470Z,63.00
2019-03-29T11:55:34.844Z,63.00
2019-03-29T11:58:01.981Z,60.60
2019-03-29T12:00:33.301Z,60.10
2019-03-29T12:03:00.409Z,59.70
2019-03-29T12:05:27.285Z,58.10
2019-03-29T12:07:54.144Z,57.80
2019-03-29T12:10:21.313Z,56.90
2019-03-29T12:12:48.243Z,56.20
2019-03-29T12:15:15.365Z,55.80
2019-03-29T12:17:42.263Z,54.60
2019-03-29T12:20:09.364Z,54.20
2019-03-29T12:22:36.911Z,53.60
2019-03-29T12:25:05.723Z,52.60
2019-03-29T12:27:32.854Z,52.10
2019-03-29T12:29:59.765Z,53.30
2019-03-29T12:32:26.481Z,53.80
2019-03-29T12:34:53.301Z,54.10
2019-03-29T12:37:20.251Z,54.50
2019-03-29T12:39:47.201Z,54.50
2019-03-29T12:42:13.909Z,54.20
2019-03-29T12:44:40.553Z,53.40
2019-03-29T12:47:07.497Z,52.70
2019-03-29T12:49:34.174Z,52.90
2019-03-29T12:52:00.960Z,52.80
2019-03-29T12:54:27.602Z,53.00
2019-03-29T12:56:54.614Z,54.10
2019-03-29T12:59:21.446Z,52.60
2019-03-29T13:01:48.490Z,51.20
2019-03-29T13:04:15.321Z,51.90
2019-03-29T13:06:42.203Z,51.60
2019-03-29T13:09:08.957Z,51.40
2019-03-29T13:11:36.551Z,51.00
2019-03-29T13:14:09.987Z,51.30
2019-03-29T13:16:32.509Z,52.10
2019-03-29T13:19:00.423Z,51.60
2019-03-29T13:21:27.298Z,51.20
2019-03-29T13:23:54.016Z,50.80
2019-03-29T13:26:20.728Z,50.50
2019-03-29T13:28:47.525Z,50.60
2019-03-29T13:31:14.225Z,50.40
2019-03-29T13:33:42.799Z,51.50
2019-03-29T13:36:09.448Z,51.50
2019-03-29T13:38:36.182Z,51.50
2019-03-29T13:41:03.156Z,53.10
2019-03-29T13:43:38.256Z,53.90
2019-03-29T13:46:05.152Z,54.70
2019-03-29T13:48:31.791Z,54.60
2019-03-29T13:50:59.584Z,54.80
2019-03-29T13:53:26.771Z,56.10
2019-03-29T13:55:53.639Z,56.40
2019-03-29T13:58:20.395Z,57.60
2019-03-29T14:00:47.111Z,59.20
2019-03-29T14:03:13.901Z,59.90
2019-03-29T14:05:40.671Z,60.20
2019-03-29T14:08:08.531Z,59.80
2019-03-29T14:10:35.346Z,60.10
2019-03-29T14:13:02.152Z,59.70
2019-03-29T14:15:28.989Z,60.10
2019-03-29T14:17:55.677Z,60.80
2019-03-29T14:20:31.177Z,61.00
2019-03-29T14:22:58.022Z,61.40
2019-03-29T14:25:27.134Z,62.50
2019-03-29T14:27:55.022Z,62.70
2019-03-29T14:30:21.826Z,63.10
2019-03-29T14:32:48.664Z,62.50
2019-03-29T14:35:15.521Z,63.10
2019-03-29T14:37:42.391Z,63.60
2019-03-29T14:40:10.248Z,64.00
2019-03-29T14:42:37.609Z,63.90
2019-03-29T14:45:05.865Z,64.10
2019-03-29T14:47:42.735Z,66.90
2019-03-29T14:50:01.161Z,66.90
2019-03-29T14:52:27.922Z,67.10
2019-03-29T14:54:54.698Z,68.30
2019-03-29T14:57:21.473Z,69.70
2019-03-29T14:59:48.093Z,69.40
2019-03-29T15:02:15.036Z,69.10
2019-03-29T15:04:41.874Z,68.40
2019-03-29T15:07:08.712Z,68.30
2019-03-29T15:09:35.453Z,68.60
2019-03-29T15:12:02.302Z,69.40
2019-03-29T15:14:29.008Z,69.30
2019-03-29T15:16:55.656Z,69.70
2019-03-29T15:19:22.497Z,70.40
2019-03-29T15:21:49.200Z,70.70
2019-03-29T15:24:16.002Z,69.20
2019-03-29T15:26:42.746Z,70.60
2019-03-29T15:29:09.420Z,70.40
2019-03-29T15:31:36.054Z,70.70
2019-03-29T15:34:02.889Z,71.60
2019-03-29T15:36:29.675Z,71.90
2019-03-29T15:38:56.600Z,72.80
2019-03-29T15:41:23.108Z,71.90
2019-03-29T15:43:50.002Z,72.40
2019-03-29T15:46:16.887Z,71.80
2019-03-29T15:48:43.756Z,71.90
2019-03-29T15:51:10.415Z,73.30
2019-03-29T15:53:37.132Z,73.80
2019-03-29T15:56:03.722Z,73.40
2019-03-29T15:58:30.524Z,72.80
2019-03-29T16:00:57.523Z,73.30
2019-03-29T16:03:24.127Z,73.00
2019-03-29T16:05:50.701Z,73.60
2019-03-29T16:08:17.457Z,73.20
2019-03-29T16:10:44.175Z,73.70
2019-03-29T16:13:10.914Z,74.40
2019-03-29T16:15:38.493Z,73.70
2019-03-29T16:18:05.343Z,73.70
2019-03-29T16:20:32.139Z,73.60
2019-03-29T16:22:58.872Z,73.90
2019-03-29T16:25:26.799Z,74.30
2019-03-29T16:27:53.512Z,74.80
2019-03-29T16:30:20.407Z,75.20
2019-03-29T16:32:47.604Z,75.50
2019-03-29T16:35:14.219Z,75.70
2019-03-29T16:37:41.084Z,74.80
2019-03-29T16:40:08.232Z,74.60
2019-03-29T16:42:34.857Z,75.30
2019-03-29T16:45:01.948Z,75.50
2019-03-29T16:47:28.776Z,75.50
2019-03-29T16:49:55.543Z,75.50
2019-03-29T16:52:22.348Z,75.50
2019-03-29T16:54:49.131Z,75.70
2019-03-29T16:57:16.982Z,76.00
2019-03-29T16:59:43.712Z,76.10
2019-03-29T17:02:10.451Z,76.70
2019-03-29T17:04:37.075Z,76.90
2019-03-29T17:07:03.853Z,76.90
2019-03-29T17:09:30.735Z,77.40
2019-03-29T17:11:57.527Z,77.90
2019-03-29T17:14:24.189Z,78.00
2019-03-29T17:16:52.972Z,78.20
2019-03-29T17:19:19.282Z,78.00
2019-03-29T17:21:45.983Z,79.60
2019-03-29T17:24:13.083Z,78.40
2019-03-29T17:26:40.972Z,78.20
2019-03-29T17:29:07.602Z,78.10
2019-03-29T17:31:34.464Z,78.70
2019-03-29T17:34:01.277Z,78.40
2019-03-29T17:36:28.243Z,78.80
2019-03-29T17:38:55.100Z,79.40
2019-03-29T17:41:21.720Z,79.50
2019-03-29T17:43:48.392Z,79.80
2019-03-29T17:46:16.756Z,80.20
2019-03-29T17:48:43.619Z,80.60
2019-03-29T17:51:10.285Z,81.60
2019-03-29T17:53:37.008Z,81.20
2019-03-29T17:56:03.926Z,81.30
2019-03-29T17:58:30.664Z,81.70
2019-03-29T18:00:57.425Z,82.40
2019-03-29T18:03:24.273Z,81.80
2019-03-29T18:05:51.702Z,82.70
2019-03-29T18:08:18.368Z,82.30
2019-03-29T18:10:45.035Z,82.80
2019-03-29T18:13:12.009Z,82.30
2019-03-29T18:15:38.937Z,83.00
2019-03-29T18:18:05.801Z,83.30
2019-03-29T18:20:32.536Z,83.40
2019-03-29T18:22:59.291Z,84.60
2019-03-29T18:25:26.036Z,84.20
2019-03-29T18:27:52.778Z,84.60
2019-03-29T18:30:23.271Z,84.20
2019-03-29T18:32:50.041Z,83.60
2019-03-29T18:35:16.822Z,84.30
2019-03-29T18:37:43.685Z,84.60
2019-03-29T18:40:17.075Z,84.90
2019-03-29T18:42:43.733Z,84.70
2019-03-29T18:45:10.671Z,85.20
2019-03-29T18:47:37.426Z,85.40
2019-03-29T18:50:04.925Z,85.40
2019-03-29T18:52:31.718Z,85.70
2019-03-29T18:54:58.466Z,86.20
2019-03-29T18:57:25.093Z,86.50
2019-03-29T18:59:51.786Z,86.90
2019-03-29T19:02:18.613Z,87.10
2019-03-29T19:04:47.304Z,87.00
2019-03-29T19:07:18.394Z,87.00
2019-03-29T19:09:45.205Z,87.20
2019-03-29T19:12:13.123Z,87.40
2019-03-29T19:14:41.581Z,87.60
2019-03-29T19:17:08.537Z,88.70
2019-03-29T19:19:35.382Z,88.20
2019-03-29T19:22:02.591Z,88.60
2019-03-29T19:24:29.486Z,88.70
2019-03-29T19:27:17.727Z,89.10
2019-03-29T19:30:11.011Z,89.20
2019-03-29T19:32:19.311Z,89.60
2019-03-29T19:34:46.173Z,89.80
2019-03-29T19:37:15.045Z,90.00
2019-03-29T19:39:41.869Z,90.00
2019-03-29T19:42:08.881Z,90.20
2019-03-29T19:44:35.651Z,90.20
2019-03-29T19:47:12.814Z,90.40
2019-03-29T19:49:31.298Z,90.50
2019-03-29T19:51:58.988Z,90.80
2019-03-29T19:54:25.694Z,90.90
2019-03-29T19:56:52.645Z,90.90
2019-03-29T19:59:19.433Z,91.60
2019-03-29T20:01:46.320Z,91.90
2019-03-29T20:04:13.477Z,92.60
2019-03-29T20:06:40.187Z,92.30
2019-03-29T20:09:08.294Z,92.50
2019-03-29T20:11:35.299Z,92.20
2019-03-29T20:14:02.648Z,92.60
2019-03-29T20:16:29.311Z,92.50
2019-03-29T20:18:55.959Z,92.60
2019-03-29T20:21:22.701Z,92.80
2019-03-29T20:23:50.630Z,93.10
2019-03-29T20:26:18.468Z,93.00
2019-03-29T20:28:45.135Z,93.00
2019-03-29T20:31:13.129Z,93.20
2019-03-29T20:33:39.999Z,93.30
2019-03-29T20:36:06.842Z,93.20
2019-03-29T20:38:33.641Z,93.30
2019-03-29T20:41:00.827Z,93.60
2019-03-29T20:43:27.568Z,93.40
2019-03-29T20:45:54.404Z,93.40
2019-03-29T20:48:23.443Z,93.30
2019-03-29T20:50:50.641Z,93.40
2019-03-29T20:53:17.503Z,93.30
2019-03-29T20:55:44.253Z,93.30
2019-03-29T20:58:11.095Z,93.40
2019-03-29T21:00:37.869Z,93.50
2019-03-29T21:03:04.883Z,93.60
2019-03-29T21:05:31.727Z,93.70
2019-03-29T21:07:59.055Z,93.70
2019-03-29T21:10:25.911Z,93.70
2019-03-29T21:12:52.686Z,93.80
2019-03-29T21:15:19.639Z,93.90
2019-03-29T21:17:56.527Z,93.90
2019-03-29T21:20:19.075Z,93.90
2019-03-29T21:22:45.882Z,93.90
2019-03-29T21:25:12.679Z,94.10
2019-03-29T21:27:39.616Z,94.20
2019-03-29T21:30:10.532Z,94.30
2019-03-29T21:32:37.645Z,94.30
2019-03-29T21:35:06.243Z,94.40
2019-03-29T21:37:35.305Z,94.50
2019-03-29T21:40:05.851Z,94.60
2019-03-29T21:42:33.113Z,94.60
2019-03-29T21:45:00.382Z,94.60
2019-03-29T21:47:27.102Z,94.90
2019-03-29T21:49:53.976Z,94.80
2019-03-29T21:52:20.719Z,94.90
2019-03-29T21:54:47.487Z,95.00
2019-03-29T21:57:14.368Z,95.00
2019-03-29T21:59:41.275Z,95.10
2019-03-29T22:02:08.163Z,95.20
2019-03-29T22:04:35.146Z,95.50
2019-03-29T22:07:02.023Z,95.40
2019-03-29T22:09:36.758Z,95.30
2019-03-29T22:11:57.556Z,95.70
2019-03-29T22:14:24.179Z,95.50
2019-03-29T22:16:50.904Z,95.70
2019-03-29T22:19:17.659Z,95.80
2019-03-29T22:21:44.719Z,95.90
2019-03-29T22:24:14.911Z,96.10
2019-03-29T22:26:43.159Z,96.40
2019-03-29T22:29:09.932Z,96.70
2019-03-29T22:31:36.759Z,96.90
2019-03-29T22:34:03.450Z,97.00
2019-03-29T22:36:30.227Z,96.90
2019-03-29T22:38:57.037Z,97.10
2019-03-29T22:41:23.777Z,97.00
2019-03-29T22:43:50.472Z,97.00
2019-03-29T22:46:17.898Z,96.80
2019-03-29T22:48:52.061Z,96.90
2019-03-29T22:51:16.372Z,96.90
2019-03-29T22:53:43.025Z,96.70
2019-03-29T22:56:09.860Z,96.90
2019-03-29T22:58:36.627Z,96.80
2019-03-29T23:01:05.026Z,96.90
2019-03-29T23:03:31.884Z,97.10
2019-03-29T23:05:58.617Z,97.00
2019-03-29T23:08:25.350Z,97.10
2019-03-29T23:10:52.112Z,97.10
2019-03-29T23:13:19.858Z,97.00
2019-03-29T23:15:46.737Z,97.00
2019-03-29T23:18:13.410Z,97.10
2019-03-29T23:20:39.963Z,97.20
2019-03-29T23:23:06.586Z,97.50
2019-03-29T23:25:33.832Z,97.00
2019-03-29T23:28:00.694Z,97.10
2019-03-29T23:30:27.474Z,97.10
2019-03-29T23:32:54.548Z,97.50
2019-03-29T23:35:21.410Z,97.20
2019-03-29T23:37:48.187Z,97.10
2019-03-29T23:40:17.077Z,97.00
2019-03-29T23:42:43.731Z,97.00
2019-03-29T23:45:10.574Z,97.10
2019-03-29T23:47:38.012Z,97.10
2019-03-29T23:50:05.381Z,97.00
2019-03-29T23:52:32.105Z,97.10
2019-03-29T23:54:58.798Z,97.30
2019-03-29T23:57:26.681Z,97.40
2019-03-29T23:59:53.315Z,97.40
